• Join FlightAware (Why Join?)
  • Login
  • US Flag 
01:44PM EDT


 

Airport Tracker/Info


-or-


 

Live Flight TrackerFlight Track Log ✈ N5167L ✈ 04-May-2013 ✈ KMQY - KARG

Flight Track Log - Related Links

Times and Time Zones

All times are in EDT time to prevent confusion due to time zone crossing. See the N5167L flight status page for this flight to view local times or setup timezone preferences in your user account.

Time Position Orientation Groundspeed Altitude Reporting Facility
EDT Latitude Longitude Course Direction KTS MPH feet Rate Location/Type
11:10AM 36.0167 -86.5000 90° East 88 101 1,400  Level Nashville TRACON
11:11AM 36.0167 -86.4667 90° East 91 105 2,200 840 Climbing Nashville TRACON
11:12AM 36.0167 -86.4333 90° East 97 112 3,000 720 Climbing Nashville TRACON
11:12AM 36.0500 -86.4333 360° North 112 129 3,600 540 Climbing Nashville TRACON
11:13AM 36.0667 -86.4500 321° Northwest 117 135 4,000 240 Climbing Nashville TRACON
11:14AM 36.1000 -86.4833 321° Northwest 131 151 4,100  Climbing Nashville TRACON
11:15AM 36.1167 -86.5167 302° West 134 154 4,100  Level Nashville TRACON
11:16AM 36.1333 -86.5500 302° West 127 146 4,100 -60 Level Nashville TRACON
11:18AM 36.1500 -86.6000 292° West 128 147 4,000 -60 Descending Nashville TRACON
11:19AM 36.1667 -86.6333 302° West 122 140 4,000  Level Nashville TRACON
11:20AM 36.1833 -86.6833 292° West 126 145 4,000  Level Nashville TRACON
11:20AM 36.1833 -86.7167 270° West 121 139 4,000  Level Nashville TRACON
11:21AM 36.2000 -86.7500 302° West 125 144 4,000  Level Nashville TRACON
11:22AM 36.2167 -86.8000 292° West 129 148 4,000  Level Nashville TRACON
11:23AM 36.2167 -86.8333 270° West 127 146 4,000  Level Nashville TRACON
11:25AM 36.2333 -86.8833 292° West 124 143 4,000  Level Nashville TRACON
11:26AM 36.2333 -86.9333 270° West 128 147 4,000  Level Nashville TRACON
11:27AM 36.2333 -86.9833 270° West 130 150 4,100  Climbing Nashville TRACON
11:29AM 36.2378 -87.0583 274° West 122 140 4,100 -60 Level Memphis Center
11:30AM 36.2408 -87.0967 276° West 122 140 4,000 -120 Descending Memphis Center
11:31AM 36.2397 -87.1353 268° West 117 135 3,900  Descending Memphis Center
11:32AM 36.2386 -87.1739 268° West 117 135 4,000  Climbing Memphis Center
11:33AM 36.2417 -87.2125 276° West 117 135 4,000  Level Memphis Center
11:34AM 36.2447 -87.2508 276° West 122 140 4,000  Level Memphis Center
11:35AM 36.2458 -87.2919 272° West 122 140 4,000 -60 Level Memphis Center
11:36AM 36.2489 -87.3306 276° West 116 133 3,900  Descending Memphis Center
11:37AM 36.2497 -87.3667 272° West 116 133 4,000  Climbing Memphis Center
11:38AM 36.2506 -87.4050 272° West 121 139 4,000  Level Memphis Center
11:39AM 36.2494 -87.4411 268° West 121 139 4,000  Level Memphis Center
11:40AM 36.2503 -87.4797 272° West 121 139 4,000  Level Memphis Center
11:41AM 36.2531 -87.5156 276° West 121 139 4,000  Level Memphis Center
11:42AM 36.2539 -87.5542 272° West 121 139 4,000  Level Memphis Center
11:43AM 36.2528 -87.5903 268° West 121 139 4,000  Level Memphis Center
11:44AM 36.2558 -87.6339 275° West 121 139 4,000  Level Memphis Center
11:45AM 36.2567 -87.6700 272° West 121 139 4,000  Level Memphis Center
11:46AM 36.2575 -87.7086 272° West 121 139 4,000  Level Memphis Center
11:47AM 36.2603 -87.7444 276° West 121 139 4,000  Level Memphis Center
11:48AM 36.2589 -87.7831 267° West 121 139 4,000  Level Memphis Center
11:49AM 36.2578 -87.8219 268° West 121 139 4,000  Level Memphis Center
11:50AM 36.2606 -87.8578 276° West 116 133 4,000 -60 Level Memphis Center
11:51AM 36.2614 -87.8964 272° West 116 133 3,900  Descending Memphis Center
11:52AM 36.2619 -87.9322 271° West 116 133 4,000 60 Climbing Memphis Center
11:53AM 36.2625 -87.9606 271° West 109 125 4,100  Climbing Memphis Center
11:54AM 36.2653 -87.9992 275° West 109 125 4,000 -60 Descending Memphis Center
11:55AM 36.2681 -88.0378 275° West 109 125 4,000  Level Memphis Center
11:56AM 36.2667 -88.0739 267° West 109 125 4,000  Level Memphis Center
11:57AM 36.2694 -88.1097 276° West 109 125 4,000  Level Memphis Center
11:58AM 36.2764 -88.1481 283° West 109 125 4,000  Level Memphis Center
11:59AM 36.2750 -88.1842 267° West 109 125 4,000  Level Memphis Center
12:00PM 36.2756 -88.2178 271° West 103 119 4,000  Level Memphis Center
12:01PM 36.2761 -88.2536 271° West 103 119 4,000  Level Memphis Center
12:02PM 36.2789 -88.2869 276° West 103 119 4,100 300 Climbing Memphis Center
12:03PM 36.2794 -88.3153 271° West 103 119 4,700 360 Climbing Memphis Center
12:04PM 36.2778 -88.3489 266° West 98 113 4,900 60 Climbing Memphis Center
12:05PM 36.2783 -88.3825 271° West 104 120 4,900  Level Memphis Center
12:06PM 36.2789 -88.4183 271° West 104 120 5,000  Climbing Memphis Center
12:07PM 36.2794 -88.4569 271° West 104 120 4,900  Descending Memphis Center
12:08PM 36.2800 -88.4906 271° West 104 120 5,000 60 Climbing Memphis Center
12:09PM 36.2764 -88.5267 263° West 104 120 5,100  Climbing Memphis Center
12:10PM 36.2811 -88.5600 280° West 104 120 5,000 -60 Descending Memphis Center
12:11PM 36.2794 -88.5933 266° West 104 120 5,000  Level Memphis Center
12:12PM 36.2800 -88.6269 271° West 104 120 5,000  Level Memphis Center
12:13PM 36.2803 -88.6603 271° West 104 120 5,000  Level Memphis Center
12:14PM 36.2808 -88.6914 271° West 104 120 5,000  Level Memphis Center
12:15PM 36.2811 -88.7247 271° West 104 120 5,000  Level Memphis Center
12:16PM 36.2817 -88.7556 271° West 104 120 5,000  Level Memphis Center
12:17PM 36.2819 -88.7892 271° West 104 120 5,000  Level Memphis Center
12:18PM 36.2825 -88.8200 271° West 104 120 5,000 -60 Level Memphis Center
12:19PM 36.2828 -88.8558 271° West 104 120 4,900  Descending Memphis Center
12:20PM 36.2833 -88.8844 271° West 104 120 5,000  Climbing Memphis Center
12:21PM 36.2856 -88.9150 275° West 99 114 5,000  Level Memphis Center
12:22PM 36.2839 -88.9461 266° West 99 114 5,000  Level Memphis Center
12:23PM 36.2844 -88.9794 271° West 99 114 5,000  Level Memphis Center
12:24PM 36.2847 -89.0106 271° West 99 114 5,000  Level Memphis Center
12:25PM 36.2831 -89.0464 267° West 99 114 5,000  Level Memphis Center
12:26PM 36.2833 -89.0800 271° West 104 120 5,000  Level Memphis Center
12:27PM 36.2858 -89.1133 275° West 104 120 5,000  Level Memphis Center
12:28PM 36.2839 -89.1469 266° West 104 120 5,000  Level Memphis Center
12:29PM 36.2844 -89.1803 271° West 104 120 5,000  Level Memphis Center
12:30PM 36.2847 -89.2139 271° West 104 120 5,000  Level Memphis Center
12:31PM 36.2850 -89.2472 271° West 104 120 5,000  Level Memphis Center
12:32PM 36.2831 -89.2783 266° West 104 120 5,000  Level Memphis Center
12:33PM 36.2856 -89.3142 275° West 104 120 5,000  Level Memphis Center
12:34PM 36.2836 -89.3478 266° West 104 120 5,000  Level Memphis Center
12:35PM 36.2839 -89.3811 271° West 104 120 5,000  Level Memphis Center
12:36PM 36.2864 -89.4147 275° West 104 120 5,000  Level Memphis Center
12:37PM 36.2844 -89.4506 266° West 104 120 5,000  Level Memphis Center
12:38PM 36.2869 -89.4842 275° West 104 120 5,000  Level Memphis Center
12:39PM 36.2869 -89.5203 270° West 104 120 5,000  Level Memphis Center
12:40PM 36.2872 -89.5486 271° West 104 120 5,000  Level Memphis Center
12:41PM 36.2894 -89.5844 274° West 104 120 5,100 180 Climbing Memphis Center
12:42PM 36.2878 -89.6181 266° West 104 120 5,400 420 Climbing Memphis Center
12:43PM 36.2900 -89.6489 275° West 104 120 6,000 300 Climbing Memphis Center
12:44PM 36.2881 -89.6825 266° West 99 114 6,000  Level Memphis Center
12:45PM 36.2903 -89.7133 275° West 99 114 6,000  Level Memphis Center
12:46PM 36.2906 -89.7442 271° West 104 120 6,000  Level Memphis Center
12:47PM 36.2928 -89.7775 275° West 104 120 6,000  Level Memphis Center
12:48PM 36.2928 -89.8086 270° West 104 120 6,000  Level Memphis Center
12:49PM 36.2908 -89.8419 266° West 104 120 6,000  Level Memphis Center
12:50PM 36.2911 -89.8728 271° West 104 120 6,100 60 Climbing Memphis Center
12:51PM 36.2911 -89.9039 270° West 104 120 6,200  Climbing Memphis Center
12:52PM 36.2914 -89.9372 271° West 104 120 6,100 -60 Descending Memphis Center
12:53PM 36.2914 -89.9681 270° West 104 120 6,100  Level Memphis Center
12:54PM 36.2914 -90.0017 270° West 104 120 6,100 180 Level Memphis Center
12:55PM 36.2894 -90.0300 265° West 98 113 6,500 480 Climbing Memphis Center
12:56PM 36.2894 -90.0583 270° West 93 107 7,100 300 Climbing Memphis Center
12:57PM 36.2897 -90.0892 271° West 88 101 7,200 300 Climbing Memphis Center
12:58PM 36.2939 -90.1200 280° West 88 101 7,700 360 Climbing Memphis Center
12:59PM 36.2919 -90.1483 265° West 88 101 8,000 120 Climbing Memphis Center
01:00PM 36.2919 -90.1819 270° West 93 107 8,000  Level Memphis Center
01:01PM 36.2919 -90.2153 270° West 98 113 8,100 60 Climbing Memphis Center
01:02PM 36.2919 -90.2489 270° West 104 120 8,200 120 Climbing Memphis Center
01:03PM 36.2942 -90.2797 275° West 104 120 8,400 300 Climbing Memphis Center
01:04PM 36.2942 -90.3081 270° West 97 112 8,800 300 Climbing Memphis Center
01:05PM 36.2919 -90.3414 265° West 97 112 9,000 60 Climbing Memphis Center
01:06PM 36.2942 -90.3800 274° West 108 124 9,000  Level Memphis Center
01:07PM 36.2919 -90.4214 266° West 113 130 9,000  Level Memphis Center
01:08PM 36.2942 -90.4600 274° West 118 136 9,000 -60 Level Memphis Center
01:09PM 36.2961 -90.4986 274° West 118 136 8,900  Descending Memphis Center
01:10PM 36.2939 -90.5372 266° West 118 136 9,100 60 Climbing Memphis Center
01:11PM 36.2939 -90.5758 270° West 118 136 9,100  Level Memphis Center
01:12PM 36.2939 -90.6144 270° West 118 136 9,100 -60 Level Memphis Center
01:13PM 36.2939 -90.6556 270° West 123 142 9,000  Descending Memphis Center
01:14PM 36.2958 -90.6944 274° West 123 142 9,100  Climbing Memphis Center
01:15PM 36.2956 -90.7328 269° West 123 142 9,100  Level Memphis Center
01:16PM 36.2975 -90.7714 274° West 123 142 9,100  Level Memphis Center
01:17PM 36.2994 -90.8103 274° West 123 142 9,200  Climbing Memphis Center
01:18PM 36.3139 -90.8514 294° West 123 142 9,200 -60 Level Memphis Center
01:19PM 36.3242 -90.8875 289° West 123 142 9,100 -60 Descending Memphis Center
01:20PM 36.3344 -90.9264 288° West 123 142 9,100  Level Memphis Center
01:21PM 36.3469 -90.9650 292° West 123 142 9,100 60 Level Memphis Center
01:22PM 36.3761 -90.9497 23° Northeast 91 105 9,300 -120 Climbing Memphis Center
01:23PM 36.3617 -90.9317 135° Southeast 24 28 8,900 -3,180 Descending Memphis Center
01:24PM 36.3656 -90.9653 278° West 38 44 3,000 -3,000 Descending Memphis Center
01:25PM 36.3781 -91.0039 292° West 89 102 3,000 960 Level Memphis Center
01:26PM 36.3819 -91.0428 277° West 114 131 5,000 960 Climbing Memphis Center
01:27PM 36.3858 -91.0761 278° West 114 131 5,000  Level Memphis Center
01:28PM 36.1511 -90.9378 155° Southeast 114 131 5,000  Level Memphis Center
01:29PM 36.1511 -90.9378 58° Northeast 114 131 5,000  Level Memphis Center
01:30PM 36.1219 -90.9325 172° South 114 131 5,000  Level Memphis Center
01:31PM 36.0906 -90.9272 172° South 114 131 5,000  Level Memphis Center
01:32PM 36.0594 -90.9192 168° South 114 131 5,000  Level Memphis Center
01:34PM 36.0594 -90.9192 31° Northeast 114 131 5,000  Level Memphis Center
01:36PM 36.0594 -90.9192 31° Northeast 114 131 5,000  Level Memphis Center
01:38PM 36.0594 -90.9192 31° Northeast 114 131 5,000  Level Memphis Center